Big Lake, Indiana
Current Conditions -  °F | °C
As of 8:54 PM on Friday 24 Oct 2014 (Local Time) from KFWA Reporting Station
Scattered Clouds Scattered Clouds  
Wind Chill: 11°   Ceiling: Unl
Heat Index: 11°   Visibility: 8mi
Dew Point:   Wind: 6mph
Humidity: 89%   Direction: 190°S
Pressure: 30.01"   Gusts: NA
Location:  41.1479°N, 85.4772°W
Report Text: KFWA 250054Z 19005KT 8SM SCT035 11/09 A3001 RMK AO2 SLP164 T01060089
Loading
Personal Weather Stations






























Interactive Weather Map
Tropical Storm Tracking
New forecast layout! Learn more

10-Day Weather Forecast

Advertisements
Track Severe Weather on mobile